sensor_id;sensor_type;location;lat;lon;timestamp;pressure;altitude;pressure_sealevel;temperature;humidity
77517;BME280;68414;53.946;27.634;2023-07-20T00:00:59;98188.351562;;;17.950001;57.607422
77517;BME280;68414;53.946;27.634;2023-07-20T00:01:59;98185.500000;;;17.980000;57.357422
77517;BME280;68414;53.946;27.634;2023-07-20T00:03:20;98186.296875;;;17.990000;57.335938
77517;BME280;68414;53.946;27.634;2023-07-20T00:03:59;98180.664062;;;18.020000;57.783203
77517;BME280;68414;53.946;27.634;2023-07-20T00:04:59;98185.343750;;;18.090000;57.968750
77517;BME280;68414;53.946;27.634;2023-07-20T00:05:59;98186.234375;;;18.020000;57.461914
77517;BME280;68414;53.946;27.634;2023-07-20T00:06:59;98184.703125;;;17.980000;57.987305
77517;BME280;68414;53.946;27.634;2023-07-20T00:08:01;98179.500000;;;18.000000;57.513672
77517;BME280;68414;53.946;27.634;2023-07-20T00:08:59;98179.101562;;;18.010000;57.660156
77517;BME280;68414;53.946;27.634;2023-07-20T00:10:00;98188.656250;;;18.000000;57.316406
77517;BME280;68414;53.946;27.634;2023-07-20T00:10:59;98188.289062;;;17.980000;57.799805
77517;BME280;68414;53.946;27.634;2023-07-20T00:11:59;98187.500000;;;17.980000;58.263672
77517;BME280;68414;53.946;27.634;2023-07-20T00:12:59;98068.296875;;;17.219999;57.666016
77517;BME280;68414;53.946;27.634;2023-07-20T00:14:00;98187.828125;;;18.030001;57.750977
77517;BME280;68414;53.946;27.634;2023-07-20T00:14:59;98191.453125;;;18.000000;58.753906
77517;BME280;68414;53.946;27.634;2023-07-20T00:15:59;98191.812500;;;18.020000;58.601562
77517;BME280;68414;53.946;27.634;2023-07-20T00:16:59;98190.281250;;;17.980000;57.788086
77517;BME280;68414;53.946;27.634;2023-07-20T00:17:59;98197.875000;;;17.969999;58.484375
77517;BME280;68414;53.946;27.634;2023-07-20T00:19:00;98199.781250;;;18.040001;58.093750
77517;BME280;68414;53.946;27.634;2023-07-20T00:19:59;98193.867188;;;17.980000;57.645508
77517;BME280;68414;53.946;27.634;2023-07-20T00:20:59;98202.687500;;;17.930000;57.782227
77517;BME280;68414;53.946;27.634;2023-07-20T00:21:59;98197.906250;;;17.940001;57.706055
77517;BME280;68414;53.946;27.634;2023-07-20T00:22:59;98192.671875;;;17.990000;57.370117
77517;BME280;68414;53.946;27.634;2023-07-20T00:23:59;98197.171875;;;17.900000;57.810547
77517;BME280;68414;53.946;27.634;2023-07-20T00:24:59;98193.562500;;;17.930000;57.759766
77517;BME280;68414;53.946;27.634;2023-07-20T00:25:59;98193.500000;;;17.959999;57.564453
77517;BME280;68414;53.946;27.634;2023-07-20T00:26:59;98199.875000;;;17.969999;57.554688
77517;BME280;68414;53.946;27.634;2023-07-20T00:27:59;98196.226562;;;18.000000;57.679688
77517;BME280;68414;53.946;27.634;2023-07-20T00:28:59;98198.093750;;;18.100000;57.405273
77517;BME280;68414;53.946;27.634;2023-07-20T00:29:59;98199.992188;;;18.160000;56.982422
77517;BME280;68414;53.946;27.634;2023-07-20T00:30:59;98196.343750;;;18.190001;56.775391
77517;BME280;68414;53.946;27.634;2023-07-20T00:31:59;98193.523438;;;18.230000;56.813477
77517;BME280;68414;53.946;27.634;2023-07-20T00:32:59;98201.921875;;;18.190001;56.974609
77517;BME280;68414;53.946;27.634;2023-07-20T00:33:59;98190.468750;;;18.139999;56.957031
77517;BME280;68414;53.946;27.634;2023-07-20T00:35:00;98196.132812;;;18.070000;57.390625
77517;BME280;68414;53.946;27.634;2023-07-20T00:35:59;98198.640625;;;17.980000;57.721680
77517;BME280;68414;53.946;27.634;2023-07-20T00:36:59;98191.078125;;;17.980000;57.755859
77517;BME280;68414;53.946;27.634;2023-07-20T00:37:59;98187.609375;;;17.910000;58.375977
77517;BME280;68414;53.946;27.634;2023-07-20T00:38:59;98191.140625;;;17.950001;57.761719
77517;BME280;68414;53.946;27.634;2023-07-20T00:39:59;98194.234375;;;18.000000;57.459961
77517;BME280;68414;53.946;27.634;2023-07-20T00:40:59;98186.234375;;;18.020000;57.395508
77517;BME280;68414;53.946;27.634;2023-07-20T00:41:59;98192.914062;;;18.080000;57.281250
77517;BME280;68414;53.946;27.634;2023-07-20T00:42:59;98186.671875;;;18.010000;57.747070
77517;BME280;68414;53.946;27.634;2023-07-20T00:44:00;98193.953125;;;17.910000;58.210938
77517;BME280;68414;53.946;27.634;2023-07-20T00:44:59;98183.750000;;;17.809999;58.363281
77517;BME280;68414;53.946;27.634;2023-07-20T00:45:59;98191.398438;;;17.740000;58.817383
77517;BME280;68414;53.946;27.634;2023-07-20T00:46:59;98191.031250;;;17.719999;58.914062
77517;BME280;68414;53.946;27.634;2023-07-20T00:47:59;98196.968750;;;17.740000;58.916992
77517;BME280;68414;53.946;27.634;2023-07-20T00:48:59;98198.937500;;;17.770000;59.175781
77517;BME280;68414;53.946;27.634;2023-07-20T00:49:59;98203.265625;;;17.809999;58.981445
77517;BME280;68414;53.946;27.634;2023-07-20T00:50:59;98198.140625;;;17.760000;59.406250
77517;BME280;68414;53.946;27.634;2023-07-20T00:52:00;98201.265625;;;17.820000;58.894531
77517;BME280;68414;53.946;27.634;2023-07-20T00:53:02;98196.062500;;;17.840000;59.449219
77517;BME280;68414;53.946;27.634;2023-07-20T00:53:59;98197.742188;;;17.780001;59.275391
77517;BME280;68414;53.946;27.634;2023-07-20T00:54:59;98198.875000;;;17.799999;58.660156
77517;BME280;68414;53.946;27.634;2023-07-20T00:55:59;98197.687500;;;17.809999;58.727539
77517;BME280;68414;53.946;27.634;2023-07-20T00:56:59;98204.078125;;;17.780001;60.149414
77517;BME280;68414;53.946;27.634;2023-07-20T00:57:59;98210.390625;;;17.820000;58.950195
77517;BME280;68414;53.946;27.634;2023-07-20T00:58:59;98202.007812;;;17.860001;58.203125
77517;BME280;68414;53.946;27.634;2023-07-20T01:00:01;98202.312500;;;17.910000;58.033203
77517;BME280;68414;53.946;27.634;2023-07-20T01:00:59;98206.726562;;;17.889999;58.351562
77517;BME280;68414;53.946;27.634;2023-07-20T01:01:59;98205.593750;;;17.860001;58.149414
77517;BME280;68414;53.946;27.634;2023-07-20T01:02:59;98208.750000;;;17.879999;58.196289
77517;BME280;68414;53.946;27.634;2023-07-20T01:04:00;98205.593750;;;17.860001;58.193359
77517;BME280;68414;53.946;27.634;2023-07-20T01:05:01;98204.000000;;;17.850000;58.378906
77517;BME280;68414;53.946;27.634;2023-07-20T01:08:03;98196.203125;;;17.730000;58.661133
77517;BME280;68414;53.946;27.634;2023-07-20T01:13:02;98193.734375;;;17.790001;59.244141
77517;BME280;68414;53.946;27.634;2023-07-20T01:13:59;98175.960938;;;17.690001;58.391602
77517;BME280;68414;53.946;27.634;2023-07-20T01:14:59;98195.265625;;;17.830000;58.774414
77517;BME280;68414;53.946;27.634;2023-07-20T01:16:59;98192.539062;;;17.799999;59.013672
77517;BME280;68414;53.946;27.634;2023-07-20T01:18:01;98201.296875;;;17.780001;59.143555
77517;BME280;68414;53.946;27.634;2023-07-20T01:19:00;98188.296875;;;17.680000;59.439453
77517;BME280;68414;53.946;27.634;2023-07-20T01:20:01;98201.062500;;;17.660000;59.856445
77517;BME280;68414;53.946;27.634;2023-07-20T01:21:03;98194.695312;;;17.650000;59.833008
77517;BME280;68414;53.946;27.634;2023-07-20T01:31:59;98196.203125;;;17.730000;59.346680
77517;BME280;68414;53.946;27.634;2023-07-20T01:33:01;98197.765625;;;17.740000;59.359375
77517;BME280;68414;53.946;27.634;2023-07-20T01:34:00;98195.718750;;;17.780001;59.143555
77517;BME280;68414;53.946;27.634;2023-07-20T01:34:59;98196.468750;;;17.820000;59.082031
77517;BME280;68414;53.946;27.634;2023-07-20T01:35:59;98200.898438;;;17.799999;59.278320
77517;BME280;68414;53.946;27.634;2023-07-20T01:36:59;98189.750000;;;17.799999;59.179688
77517;BME280;68414;53.946;27.634;2023-07-20T01:37:59;98194.078125;;;17.840000;59.241211
77517;BME280;68414;53.946;27.634;2023-07-20T01:38:59;98194.609375;;;17.719999;59.412109
77517;BME280;68414;53.946;27.634;2023-07-20T01:39:59;98198.281250;;;17.660000;59.823242
77517;BME280;68414;53.946;27.634;2023-07-20T01:40:59;98200.187500;;;17.719999;59.457031
77517;BME280;68414;53.946;27.634;2023-07-20T01:41:59;98201.492188;;;17.639999;59.909180
77517;BME280;68414;53.946;27.634;2023-07-20T01:42:59;98200.843750;;;17.500000;60.518555
77517;BME280;68414;53.946;27.634;2023-07-20T01:43:59;98199.234375;;;17.520000;60.312500
77517;BME280;68414;53.946;27.634;2023-07-20T01:44:59;98201.140625;;;17.590000;60.298828
77517;BME280;68414;53.946;27.634;2023-07-20T01:46:01;98202.312500;;;17.610001;60.048828
77517;BME280;68414;53.946;27.634;2023-07-20T01:46:59;98200.375000;;;17.580000;60.277344
77517;BME280;68414;53.946;27.634;2023-07-20T01:47:59;98191.671875;;;17.530001;60.500000
77517;BME280;68414;53.946;27.634;2023-07-20T01:48:59;98198.835938;;;17.540001;60.182617
77517;BME280;68414;53.946;27.634;2023-07-20T01:50:00;98200.476562;;;17.480000;60.648438
77517;BME280;68414;53.946;27.634;2023-07-20T01:50:59;98192.843750;;;17.549999;60.337891
77517;BME280;68414;53.946;27.634;2023-07-20T01:52:01;98196.468750;;;17.490000;60.307617
77517;BME280;68414;53.946;27.634;2023-07-20T01:52:59;98192.890625;;;17.480000;60.417969
77517;BME280;68414;53.946;27.634;2023-07-20T01:54:02;98193.289062;;;17.500000;60.541992
77517;BME280;68414;53.946;27.634;2023-07-20T01:54:59;98191.328125;;;17.469999;60.525391
77517;BME280;68414;53.946;27.634;2023-07-20T01:55:59;98192.890625;;;17.480000;60.451172
77517;BME280;68414;53.946;27.634;2023-07-20T01:56:59;98192.492188;;;17.500000;60.286133
77517;BME280;68414;53.946;27.634;2023-07-20T01:57:59;98192.515625;;;17.459999;60.424805
77517;BME280;68414;53.946;27.634;2023-07-20T01:58:59;98182.171875;;;17.469999;60.470703
77517;BME280;68414;53.946;27.634;2023-07-20T01:59:59;98189.335938;;;17.480000;60.416016
77517;BME280;68414;53.946;27.634;2023-07-20T02:01:00;98186.148438;;;17.450001;60.370117
77517;BME280;68414;53.946;27.634;2023-07-20T02:01:59;98191.031250;;;17.379999;61.008789
77517;BME280;68414;53.946;27.634;2023-07-20T02:02:59;98195.359375;;;17.420000;60.927734
77517;BME280;68414;53.946;27.634;2023-07-20T02:03:59;98193.765625;;;17.410000;60.717773
77517;BME280;68414;53.946;27.634;2023-07-20T02:04:59;98189.906250;;;17.320000;61.079102
77517;BME280;68414;53.946;27.634;2023-07-20T02:05:59;98190.281250;;;17.340000;61.047852
77517;BME280;68414;53.946;27.634;2023-07-20T02:06:59;98181.187500;;;17.299999;61.219727
77517;BME280;68414;53.946;27.634;2023-07-20T02:07:59;98184.835938;;;17.230000;61.574219
77517;BME280;68414;53.946;27.634;2023-07-20T02:08:59;98182.000000;;;17.270000;61.711914
77517;BME280;68414;53.946;27.634;2023-07-20T02:09:59;98191.156250;;;17.270000;62.131836
77517;BME280;68414;53.946;27.634;2023-07-20T02:11:02;98192.265625;;;17.330000;61.478516
77517;BME280;68414;53.946;27.634;2023-07-20T02:11:59;98193.140625;;;17.270000;61.766602
77517;BME280;68414;53.946;27.634;2023-07-20T02:12:59;98190.781250;;;17.250000;61.544922
77517;BME280;68414;53.946;27.634;2023-07-20T02:14:00;98190.890625;;;17.150000;61.760742
77517;BME280;68414;53.946;27.634;2023-07-20T02:14:59;98189.234375;;;17.209999;61.791992
77517;BME280;68414;53.946;27.634;2023-07-20T02:15:59;98193.515625;;;17.290001;61.560547
77517;BME280;68414;53.946;27.634;2023-07-20T02:17:01;98187.875000;;;17.360001;61.194336
77517;BME280;68414;53.946;27.634;2023-07-20T02:17:59;98195.375000;;;17.389999;60.967773
77517;BME280;68414;53.946;27.634;2023-07-20T02:18:59;98190.976562;;;17.410000;60.949219
77517;BME280;68414;53.946;27.634;2023-07-20T02:19:59;98196.546875;;;17.410000;61.313477
77517;BME280;68414;53.946;27.634;2023-07-20T02:20:59;98187.796875;;;17.430000;60.995117
77517;BME280;68414;53.946;27.634;2023-07-20T02:21:59;98190.703125;;;17.320000;61.179688
77517;BME280;68414;53.946;27.634;2023-07-20T02:22:59;98183.984375;;;17.260000;61.467773
77517;BME280;68414;53.946;27.634;2023-07-20T02:23:59;98189.062500;;;17.350000;61.171875
77517;BME280;68414;53.946;27.634;2023-07-20T02:24:59;98187.875000;;;17.360001;61.028320
77517;BME280;68414;53.946;27.634;2023-07-20T02:25:59;98192.593750;;;17.389999;60.978516
77517;BME280;68414;53.946;27.634;2023-07-20T02:26:59;98187.125000;;;17.320000;61.552734
77517;BME280;68414;53.946;27.634;2023-07-20T02:27:59;98193.140625;;;17.270000;61.766602
77517;BME280;68414;53.946;27.634;2023-07-20T02:28:59;98186.773438;;;17.260000;61.567383
77517;BME280;68414;53.946;27.634;2023-07-20T02:29:59;98195.171875;;;17.230000;61.926758
77517;BME280;68414;53.946;27.634;2023-07-20T02:30:59;98191.523438;;;17.290001;61.859375
77517;BME280;68414;53.946;27.634;2023-07-20T02:31:59;98195.781250;;;17.410000;61.433594
77517;BME280;68414;53.946;27.634;2023-07-20T02:32:59;98190.656250;;;17.360001;61.469727
77517;BME280;68414;53.946;27.634;2023-07-20T02:33:59;98202.117188;;;17.410000;61.103516
77517;BME280;68414;53.946;27.634;2023-07-20T02:35:01;98198.562500;;;17.410000;61.456055
77517;BME280;68414;53.946;27.634;2023-07-20T02:35:59;98193.015625;;;17.370001;61.791992
77517;BME280;68414;53.946;27.634;2023-07-20T02:36:59;98199.703125;;;17.430000;61.050781
77517;BME280;68414;53.946;27.634;2023-07-20T02:37:59;98199.679688;;;17.469999;60.878906
77517;BME280;68414;53.946;27.634;2023-07-20T02:38:59;98189.437500;;;17.370001;61.185547
77517;BME280;68414;53.946;27.634;2023-07-20T02:39:59;98191.523438;;;17.290001;61.065430
77517;BME280;68414;53.946;27.634;2023-07-20T02:41:00;98194.679688;;;17.309999;61.233398
77517;BME280;68414;53.946;27.634;2023-07-20T02:41:59;98191.843750;;;17.350000;61.403320
77517;BME280;68414;53.946;27.634;2023-07-20T02:42:59;98195.054688;;;17.330000;61.422852
77517;BME280;68414;53.946;27.634;2023-07-20T02:43:59;98194.257812;;;17.330000;61.377930
77517;BME280;68414;53.946;27.634;2023-07-20T02:44:59;98195.992188;;;17.200001;61.602539
77517;BME280;68414;53.946;27.634;2023-07-20T02:45:59;98186.398438;;;17.240000;61.685547
77517;BME280;68414;53.946;27.634;2023-07-20T02:47:01;98190.281250;;;17.340000;61.478516
77517;BME280;68414;53.946;27.634;2023-07-20T02:47:59;98187.445312;;;17.370001;60.931641
77517;BME280;68414;53.946;27.634;2023-07-20T02:49:01;98181.554688;;;17.320000;60.957031
77517;BME280;68414;53.946;27.634;2023-07-20T02:49:59;98190.781250;;;17.250000;61.214844
77517;BME280;68414;53.946;27.634;2023-07-20T02:50:59;98197.609375;;;17.170000;61.432617
77517;BME280;68414;53.946;27.634;2023-07-20T02:51:59;98185.601562;;;17.240000;61.585938
77517;BME280;68414;53.946;27.634;2023-07-20T02:52:59;98191.843750;;;17.350000;60.973633
77517;BME280;68414;53.946;27.634;2023-07-20T02:53:59;98187.015625;;;17.389999;60.813477
77517;BME280;68414;53.946;27.634;2023-07-20T02:54:59;98186.273438;;;17.350000;60.863281
77517;BME280;68414;53.946;27.634;2023-07-20T02:55:59;98186.703125;;;17.330000;61.224609
77517;BME280;68414;53.946;27.634;2023-07-20T02:57:01;98185.453125;;;17.379999;60.810547
77517;BME280;68414;53.946;27.634;2023-07-20T02:57:59;98192.218750;;;17.370001;60.810547
77517;BME280;68414;53.946;27.634;2023-07-20T02:59:00;98190.210938;;;17.410000;60.871094
77517;BME280;68414;53.946;27.634;2023-07-20T02:59:59;98194.984375;;;17.400000;60.803711
77517;BME280;68414;53.946;27.634;2023-07-20T03:00:59;98189.531250;;;17.299999;62.124023
77517;BME280;68414;53.946;27.634;2023-07-20T03:01:59;97970.734375;;;15.980000;61.223633
77517;BME280;68414;53.946;27.634;2023-07-20T03:02:59;98188.984375;;;17.420000;60.628906
77517;BME280;68414;53.946;27.634;2023-07-20T03:03:59;98188.515625;;;17.510000;60.673828
77517;BME280;68414;53.946;27.634;2023-07-20T03:04:59;98190.421875;;;17.570000;60.064453
77517;BME280;68414;53.946;27.634;2023-07-20T03:05:59;98194.804688;;;17.580000;60.056641
77517;BME280;68414;53.946;27.634;2023-07-20T03:06:59;98194.437500;;;17.559999;60.141602
77517;BME280;68414;53.946;27.634;2023-07-20T03:07:59;98190.875000;;;17.520000;60.256836
77517;BME280;68414;53.946;27.634;2023-07-20T03:08:59;98198.937500;;;17.430000;60.498047
77517;BME280;68414;53.946;27.634;2023-07-20T03:09:59;98193.859375;;;17.340000;60.829102
77517;BME280;68414;53.946;27.634;2023-07-20T03:10:59;98192.695312;;;17.320000;60.923828
77517;BME280;68414;53.946;27.634;2023-07-20T03:12:01;98191.578125;;;17.260000;61.048828
77517;BME280;68414;53.946;27.634;2023-07-20T03:12:59;98186.828125;;;17.230000;61.188477
77517;BME280;68414;53.946;27.634;2023-07-20T03:13:59;98178.093750;;;17.209999;61.241211
77517;BME280;68414;53.946;27.634;2023-07-20T03:14:59;98181.250000;;;17.230000;61.332031
77517;BME280;68414;53.946;27.634;2023-07-20T03:15:59;98185.882812;;;17.360001;60.963867
77517;BME280;68414;53.946;27.634;2023-07-20T03:16:59;98186.250000;;;17.379999;60.955078
77517;BME280;68414;53.946;27.634;2023-07-20T03:17:59;98186.148438;;;17.450001;61.032227
77517;BME280;68414;53.946;27.634;2023-07-20T03:18:59;98185.382812;;;17.450001;61.416992
77517;BME280;68414;53.946;27.634;2023-07-20T03:19:59;98189.781250;;;17.420000;61.666016
77517;BME280;68414;53.946;27.634;2023-07-20T03:20:59;98188.609375;;;17.400000;62.016602
77517;BME280;68414;53.946;27.634;2023-07-20T03:21:59;98189.437500;;;17.370001;62.387695
77517;BME280;68414;53.946;27.634;2023-07-20T03:22:59;98177.101562;;;17.379999;61.527344
77517;BME280;68414;53.946;27.634;2023-07-20T03:23:59;98180.953125;;;17.510000;60.763672
77517;BME280;68414;53.946;27.634;2023-07-20T03:25:01;98184.484375;;;17.549999;60.989258
77517;BME280;68414;53.946;27.634;2023-07-20T03:25:59;98186.453125;;;17.580000;60.575195
77517;BME280;68414;53.946;27.634;2023-07-20T03:26:59;98182.812500;;;17.610001;60.678711
77517;BME280;68414;53.946;27.634;2023-07-20T03:27:59;98183.179688;;;17.629999;60.769531
77517;BME280;68414;53.946;27.634;2023-07-20T03:28:59;98180.500000;;;17.559999;60.528320
77517;BME280;68414;53.946;27.634;2023-07-20T03:30:00;98185.703125;;;17.540001;60.480469
77517;BME280;68414;53.946;27.634;2023-07-20T03:30:59;98189.492188;;;17.670000;59.935547
77517;BME280;68414;53.946;27.634;2023-07-20T03:31:59;98193.046875;;;17.709999;59.928711
77517;BME280;68414;53.946;27.634;2023-07-20T03:32:59;98188.242188;;;17.719999;60.162109
77517;BME280;68414;53.946;27.634;2023-07-20T03:34:02;98192.203125;;;17.740000;60.033203
77517;BME280;68414;53.946;27.634;2023-07-20T03:34:59;98192.937500;;;17.780001;59.486328
77517;BME280;68414;53.946;27.634;2023-07-20T03:36:00;98195.843750;;;17.709999;60.072266
77517;BME280;68414;53.946;27.634;2023-07-20T03:36:59;98200.187500;;;17.719999;60.251953
77517;BME280;68414;53.946;27.634;2023-07-20T03:37:59;98198.250000;;;17.690001;60.357422
77517;BME280;68414;53.946;27.634;2023-07-20T03:38:59;98199.445312;;;17.680000;60.753906
77517;BME280;68414;53.946;27.634;2023-07-20T03:39:59;98199.078125;;;17.660000;60.584961
77517;BME280;68414;53.946;27.634;2023-07-20T03:41:00;98203.343750;;;17.740000;59.934570
77517;BME280;68414;53.946;27.634;2023-07-20T03:41:59;98192.109375;;;17.809999;59.600586
77517;BME280;68414;53.946;27.634;2023-07-20T03:42:59;98204.734375;;;17.889999;59.346680
77517;BME280;68414;53.946;27.634;2023-07-20T03:43:59;98203.828125;;;17.990000;59.260742
77517;BME280;68414;53.946;27.634;2023-07-20T03:44:59;98198.187500;;;18.030001;59.111328
77517;BME280;68414;53.946;27.634;2023-07-20T03:46:01;98200.148438;;;18.059999;58.892578
77517;BME280;68414;53.946;27.634;2023-07-20T03:46:59;98204.703125;;;17.930000;59.185547
77517;BME280;68414;53.946;27.634;2023-07-20T03:47:59;98207.156250;;;17.870001;59.563477
77517;BME280;68414;53.946;27.634;2023-07-20T03:48:59;98206.242188;;;17.969999;58.993164
77517;BME280;68414;53.946;27.634;2023-07-20T03:50:01;98200.757812;;;17.900000;59.292969
77517;BME280;68414;53.946;27.634;2023-07-20T03:50:59;98199.531250;;;17.910000;59.503906
77517;BME280;68414;53.946;27.634;2023-07-20T03:52:00;98211.195312;;;17.830000;59.791016
77517;BME280;68414;53.946;27.634;2023-07-20T03:52:59;98201.406250;;;17.709999;60.194336
77517;BME280;68414;53.946;27.634;2023-07-20T03:53:59;98208.546875;;;17.719999;59.821289
77517;BME280;68414;53.946;27.634;2023-07-20T03:54:59;98204.453125;;;17.799999;59.953125
77517;BME280;68414;53.946;27.634;2023-07-20T03:55:59;98204.796875;;;17.860001;60.092773
77517;BME280;68414;53.946;27.634;2023-07-20T03:56:59;98206.421875;;;17.830000;59.746094
77517;BME280;68414;53.946;27.634;2023-07-20T03:57:59;98199.304688;;;17.790001;60.293945
77517;BME280;68414;53.946;27.634;2023-07-20T03:59:01;98208.750000;;;17.879999;60.085938
77517;BME280;68414;53.946;27.634;2023-07-20T03:59:59;98199.898438;;;17.930000;59.671875
77517;BME280;68414;53.946;27.634;2023-07-20T04:00:59;98200.328125;;;17.920000;59.603516
77517;BME280;68414;53.946;27.634;2023-07-20T04:01:59;98199.648438;;;17.840000;59.661133
77517;BME280;68414;53.946;27.634;2023-07-20T04:02:59;98198.000000;;;17.870001;59.707031
77517;BME280;68414;53.946;27.634;2023-07-20T04:03:59;98204.648438;;;17.959999;60.106445
77517;BME280;68414;53.946;27.634;2023-07-20T04:04:59;98199.953125;;;17.900000;60.429688
77517;BME280;68414;53.946;27.634;2023-07-20T04:05:59;98198.421875;;;17.850000;59.815430
77517;BME280;68414;53.946;27.634;2023-07-20T04:07:01;98203.625000;;;17.830000;59.956055
77517;BME280;68414;53.946;27.634;2023-07-20T04:08:02;98199.671875;;;17.809999;59.754883
77517;BME280;68414;53.946;27.634;2023-07-20T04:08:59;98207.578125;;;17.860001;60.048828
77517;BME280;68414;53.946;27.634;2023-07-20T04:09:59;98202.226562;;;17.980000;59.502930
77517;BME280;68414;53.946;27.634;2023-07-20T04:11:01;98202.812500;;;18.129999;58.902344
77517;BME280;68414;53.946;27.634;2023-07-20T04:11:59;98204.070312;;;18.080000;58.874023
77517;BME280;68414;53.946;27.634;2023-07-20T04:13:00;98199.781250;;;18.040001;58.668945
77517;BME280;68414;53.946;27.634;2023-07-20T04:13:59;98201.250000;;;18.120001;58.845703
77517;BME280;68414;53.946;27.634;2023-07-20T04:14:59;98205.046875;;;18.250000;58.630859
77517;BME280;68414;53.946;27.634;2023-07-20T04:15:59;98203.351562;;;18.309999;58.750000
77517;BME280;68414;53.946;27.634;2023-07-20T04:16:59;98205.843750;;;18.260000;58.941406
77517;BME280;68414;53.946;27.634;2023-07-20T04:17:59;98200.718750;;;18.209999;58.922852
77517;BME280;68414;53.946;27.634;2023-07-20T04:18:59;98202.453125;;;18.379999;58.183594
77517;BME280;68414;53.946;27.634;2023-07-20T04:19:59;98196.304688;;;18.500000;57.479492
77517;BME280;68414;53.946;27.634;2023-07-20T04:20:59;98199.164062;;;18.459999;57.530273
77517;BME280;68414;53.946;27.634;2023-07-20T04:21:59;98120.226562;;;17.959999;57.442383
77517;BME280;68414;53.946;27.634;2023-07-20T04:22:59;98196.375000;;;18.459999;58.028320
77517;BME280;68414;53.946;27.634;2023-07-20T04:24:01;98200.625000;;;18.540001;57.717773
77517;BME280;68414;53.946;27.634;2023-07-20T04:24:59;98198.085938;;;18.629999;57.408203
77517;BME280;68414;53.946;27.634;2023-07-20T04:25:59;98202.140625;;;18.590000;57.237305
77517;BME280;68414;53.946;27.634;2023-07-20T04:27:01;98198.367188;;;18.459999;57.716797
77517;BME280;68414;53.946;27.634;2023-07-20T04:27:59;98200.687500;;;18.510000;57.292969
77517;BME280;68414;53.946;27.634;2023-07-20T04:28:59;98209.125000;;;18.440001;58.046875
77517;BME280;68414;53.946;27.634;2023-07-20T04:29:59;98208.328125;;;18.469999;57.819336
77517;BME280;68414;53.946;27.634;2023-07-20T04:31:59;98209.062500;;;18.510000;57.082031
77517;BME280;68414;53.946;27.634;2023-07-20T04:33:01;98212.750000;;;18.440001;57.294922
77517;BME280;68414;53.946;27.634;2023-07-20T04:33:59;98209.234375;;;18.370001;57.771484
77517;BME280;68414;53.946;27.634;2023-07-20T04:34:59;98203.984375;;;18.420000;58.233398
77517;BME280;68414;53.946;27.634;2023-07-20T04:35:59;98203.250000;;;18.379999;59.311523
77517;BME280;68414;53.946;27.634;2023-07-20T04:36:59;98207.968750;;;18.410000;60.278320
77517;BME280;68414;53.946;27.634;2023-07-20T04:37:59;98200.562500;;;18.309999;60.596680
77517;BME280;68414;53.946;27.634;2023-07-20T04:39:00;98202.343750;;;18.180000;62.047852
77517;BME280;68414;53.946;27.634;2023-07-20T04:39:59;98208.875000;;;18.080000;62.333008
77517;BME280;68414;53.946;27.634;2023-07-20T04:40:59;98203.703125;;;18.059999;62.783203
77517;BME280;68414;53.946;27.634;2023-07-20T04:41:59;98205.664062;;;18.090000;62.833008
77517;BME280;68414;53.946;27.634;2023-07-20T04:42:59;98211.179688;;;18.129999;63.234375
77517;BME280;68414;53.946;27.634;2023-07-20T04:43:59;98194.414062;;;18.160000;63.328125
77517;BME280;68414;53.946;27.634;2023-07-20T04:44:59;98207.562500;;;18.160000;63.691406
77517;BME280;68414;53.946;27.634;2023-07-20T04:45:59;98207.718750;;;18.049999;63.323242
77517;BME280;68414;53.946;27.634;2023-07-20T04:46:59;98204.343750;;;17.910000;64.991211
77517;BME280;68414;53.946;27.634;2023-07-20T04:47:59;98201.546875;;;17.910000;65.024414
77517;BME280;68414;53.946;27.634;2023-07-20T04:48:59;98201.859375;;;17.959999;64.137695